Startpagina
METAR-TAF:

METAR-TAF

Vliegvelden :

Belize City, Belize

Phillip Goldston

breedte: 17-32N, lengte: 088-18W, hoogte: 5 m

Actueel weer

Dit bericht is 57 minuten geleden gemaakt, om 15:00 UTC
Weinig wind
Temperatuur 24°C
Vochtigheid 94%
Druk 1016 hPa
Zicht 10 km of meer
Weinig wolken op 1700 ft
Gebroken wolken op 4500 ft

METAR: MZBZ 151500Z 00000KT 9999 FEW017 BKN045 24/23 A3000 Q1016 NOSIG

Tijdstip: 09:57 (15:57 UTC)

Verwachting

Dit bericht is 5 uur en het 17 minuten geleden gemaakt, om 10:40 UTC
Verwachting geldig van 15 om 12 UTC tot 16 om 12 UTC
Wind 3 kt uit variabele richting
Zicht 10 km of meer
Verspreide wolken op 2200 ft
Gebroken wolken op 4500 ft
Wijzigt naar
van 15 om 14 UTC tot 15 om 16 UTC
Wind 7 kt uit het oostnoordoosten
Kans 30% :
Tijdelijke
van 16 om 09 UTC tot 16 om 12 UTC
Zicht: 5000 m
Gebroken wolken op 1400 ft
regenbuien

TAF: MZBZ 151040Z 1512/1612 VRB03KT 9999 SCT022 BKN045 BECMG 1514/1516 07007KT PROB30 TEMPO 1609/1612 5000 SHRA BKN014

Waarnemingen en weersverwachtingen van meer dan 4000 vliegvelden (METAR en TAF).

De beschikbare stations zijn de gele en rode punten op de kaart.

Ga met uw muis naar het station om de naam te zien.

Klik dan om waarnemingen en weersverwachtingen te zien.

kaart wijzigen: klik op de groene knoppen met een zwart kruis om in te zoomen, op de groene knop met een streepje om uit te zoomen of op de groene pijlen voor aangrenzende kaarten.


METAR-TAF: